createdAt,value
2023-05-20T00:01:28.428Z,99592.34
2023-05-20T00:04:31.033Z,99589.22
2023-05-20T00:07:33.352Z,99586.97
2023-05-20T00:10:36.381Z,99595.13
2023-05-20T00:13:39.146Z,99591.47
2023-05-20T00:16:41.795Z,99581.34
2023-05-20T00:19:44.189Z,99576.38
2023-05-20T00:22:46.701Z,99586.94
2023-05-20T00:25:49.834Z,99572.34
2023-05-20T00:28:52.256Z,99565.53
2023-05-20T00:31:54.827Z,99561.78
2023-05-20T00:35:01.291Z,99545.59
2023-05-20T00:38:03.621Z,99547.47
2023-05-20T00:41:06.013Z,99546.00
2023-05-20T00:44:08.393Z,99554.13
2023-05-20T00:47:10.823Z,99537.59
2023-05-20T00:50:13.509Z,99548.69
2023-05-20T00:53:21.486Z,99551.59
2023-05-20T00:56:23.784Z,99556.84
2023-05-20T00:59:27.004Z,99558.66
2023-05-20T01:02:29.972Z,99550.28
2023-05-20T01:05:32.514Z,99568.03
2023-05-20T01:08:35.725Z,99555.34
2023-05-20T01:11:45.323Z,99563.41
2023-05-20T01:15:00.601Z,99569.31
2023-05-20T01:18:10.673Z,99574.66
2023-05-20T01:21:15.943Z,99567.28
2023-05-20T01:24:18.266Z,99559.25
2023-05-20T01:27:22.616Z,99564.53
2023-05-20T01:30:36.023Z,99567.38
2023-05-20T01:33:41.587Z,99564.72
2023-05-20T01:36:46.518Z,99570.69
2023-05-20T01:39:50.916Z,99563.44
2023-05-20T01:42:56.232Z,99568.31
2023-05-20T01:45:58.656Z,99564.47
2023-05-20T01:49:01.178Z,99575.72
2023-05-20T01:52:04.572Z,99565.97
2023-05-20T01:55:07.198Z,99565.97
2023-05-20T01:58:09.664Z,99569.22
2023-05-20T02:01:12.252Z,99565.75
2023-05-20T02:04:14.722Z,99564.59
2023-05-20T02:07:18.924Z,99571.22
2023-05-20T02:10:21.408Z,99565.31
2023-05-20T02:13:23.728Z,99575.75
2023-05-20T02:16:26.416Z,99565.00
2023-05-20T02:19:28.976Z,99572.31
2023-05-20T02:22:31.695Z,99574.50
2023-05-20T02:25:34.504Z,99572.34
2023-05-20T02:28:40.558Z,99574.41
2023-05-20T02:31:43.057Z,99581.03
2023-05-20T02:34:45.608Z,99582.81
2023-05-20T02:37:48.383Z,99574.13
2023-05-20T02:40:51.297Z,99582.72
2023-05-20T02:43:54.262Z,99580.53
2023-05-20T02:46:56.575Z,99568.97
2023-05-20T02:49:58.971Z,99571.16
2023-05-20T02:53:01.328Z,99565.81
2023-05-20T02:56:04.694Z,99570.34
2023-05-20T02:59:07.420Z,99580.53
2023-05-20T03:02:09.893Z,99576.66
2023-05-20T03:05:12.430Z,99581.59
2023-05-20T03:08:15.079Z,99592.69
2023-05-20T03:11:17.373Z,99598.72
2023-05-20T03:14:19.732Z,99589.75
2023-05-20T03:17:23.198Z,99587.75
2023-05-20T03:20:27.092Z,99589.16
2023-05-20T03:23:30.283Z,99587.06
2023-05-20T03:26:33.909Z,99601.38
2023-05-20T03:29:36.283Z,99601.38
2023-05-20T03:32:38.771Z,99603.19
2023-05-20T03:35:41.467Z,99609.09
2023-05-20T03:38:43.782Z,99605.84
2023-05-20T03:41:46.149Z,99618.41
2023-05-20T03:44:48.745Z,99618.50
2023-05-20T03:47:52.114Z,99621.56
2023-05-20T03:50:55.444Z,99615.84
2023-05-20T03:53:57.816Z,99624.91
2023-05-20T03:57:03.047Z,99622.75
2023-05-20T04:00:12.234Z,99623.63
2023-05-20T04:03:18.558Z,99628.78
2023-05-20T04:06:22.692Z,99629.53
2023-05-20T04:09:26.238Z,99622.84
2023-05-20T04:12:30.796Z,99623.03
2023-05-20T04:15:36.240Z,99625.28
2023-05-20T04:18:39.277Z,99630.13
2023-05-20T04:21:43.281Z,99630.13
2023-05-20T04:24:46.131Z,99631.59
2023-05-20T04:27:49.746Z,99634.22
2023-05-20T04:30:59.221Z,99634.09
2023-05-20T04:34:02.766Z,99639.91
2023-05-20T04:37:07.759Z,99639.94
2023-05-20T04:40:12.609Z,99640.69
2023-05-20T04:43:15.697Z,99640.63
2023-05-20T04:46:18.011Z,99636.16
2023-05-20T04:49:20.294Z,99633.69
2023-05-20T04:52:24.397Z,99642.28
2023-05-20T04:55:27.590Z,99643.41
2023-05-20T04:58:31.705Z,99631.38
2023-05-20T05:01:34.701Z,99621.63
2023-05-20T05:04:37.057Z,99629.25
2023-05-20T05:07:39.426Z,99631.22
2023-05-20T05:10:41.770Z,99622.09
2023-05-20T05:13:45.624Z,99623.50
2023-05-20T05:16:47.967Z,99621.78
2023-05-20T05:19:51.088Z,99623.19
2023-05-20T05:22:53.449Z,99620.94
2023-05-20T05:25:56.048Z,99618.00
2023-05-20T05:28:58.558Z,99621.66
2023-05-20T05:32:01.332Z,99625.59
2023-05-20T05:35:06.675Z,99622.09
2023-05-20T05:38:10.673Z,99619.84
2023-05-20T05:41:13.013Z,99619.22
2023-05-20T05:44:15.720Z,99616.41
2023-05-20T05:47:19.147Z,99620.44
2023-05-20T05:50:22.458Z,99611.22
2023-05-20T05:53:24.751Z,99612.81
2023-05-20T05:56:27.652Z,99616.72
2023-05-20T05:59:31.337Z,99613.66
2023-05-20T06:02:36.661Z,99614.47
2023-05-20T06:05:39.225Z,99616.72
2023-05-20T06:08:41.565Z,99610.25
2023-05-20T06:11:44.695Z,99607.72
2023-05-20T06:14:47.879Z,99620.97
2023-05-20T06:17:50.720Z,99612.66
2023-05-20T06:20:57.713Z,99624.75
2023-05-20T06:24:00.868Z,99616.75
2023-05-20T06:27:03.327Z,99614.78
2023-05-20T06:30:06.422Z,99611.13
2023-05-20T06:33:09.123Z,99612.78
2023-05-20T06:36:12.521Z,99612.94
2023-05-20T06:39:14.829Z,99613.88
2023-05-20T06:42:21.221Z,99616.53
2023-05-20T06:45:37.762Z,99614.94
2023-05-20T06:48:56.798Z,99621.75
2023-05-20T06:51:59.115Z,99611.16
2023-05-20T06:55:01.561Z,99620.59
2023-05-20T06:58:04.092Z,99619.31
2023-05-20T07:01:06.823Z,99617.25
2023-05-20T07:04:09.364Z,99620.72
2023-05-20T07:07:12.332Z,99619.50
2023-05-20T07:10:15.482Z,99614.25
2023-05-20T07:13:18.340Z,99632.28
2023-05-20T07:16:20.745Z,99615.84
2023-05-20T07:19:28.845Z,99607.56
2023-05-20T07:22:31.348Z,99617.66
2023-05-20T07:25:57.205Z,99608.81
2023-05-20T07:28:59.928Z,99604.00
2023-05-20T07:32:03.168Z,99603.38
2023-05-20T07:35:05.982Z,99617.72
2023-05-20T07:38:08.465Z,99612.38
2023-05-20T07:41:11.533Z,99603.88
2023-05-20T07:44:13.926Z,99605.72
2023-05-20T07:47:20.806Z,99597.78
2023-05-20T07:50:23.389Z,99602.84
2023-05-20T07:53:26.278Z,99609.91
2023-05-20T07:56:28.942Z,99603.59
2023-05-20T07:59:31.387Z,99598.66
2023-05-20T08:02:34.964Z,99593.72
2023-05-20T08:05:41.900Z,99601.75
2023-05-20T08:08:44.304Z,99597.50
2023-05-20T08:11:54.079Z,99595.66
2023-05-20T08:14:56.526Z,99594.75
2023-05-20T08:17:58.851Z,99586.00
2023-05-20T08:21:02.033Z,99589.59
2023-05-20T08:24:05.151Z,99591.41
2023-05-20T08:27:08.548Z,99581.75
2023-05-20T08:30:11.146Z,99589.72
2023-05-20T08:33:13.970Z,99585.34
2023-05-20T08:36:16.473Z,99579.22
2023-05-20T08:39:19.549Z,99578.13
2023-05-20T08:42:26.787Z,99577.81
2023-05-20T08:45:37.272Z,99588.59
2023-05-20T08:48:44.489Z,99578.28
2023-05-20T08:51:47.429Z,99580.78
2023-05-20T08:54:50.678Z,99578.09
2023-05-20T08:57:54.759Z,99573.81
2023-05-20T09:00:58.873Z,99580.59
2023-05-20T09:04:01.273Z,99568.63
2023-05-20T09:07:04.009Z,99568.56
2023-05-20T09:10:06.879Z,99560.41
2023-05-20T09:13:10.432Z,99571.19
2023-05-20T09:16:13.575Z,99565.03
2023-05-20T09:19:16.012Z,99559.53
2023-05-20T09:22:26.061Z,99564.28
2023-05-20T09:25:29.484Z,99557.56
2023-05-20T09:28:31.929Z,99563.69
2023-05-20T09:31:35.615Z,99562.03
2023-05-20T09:34:38.595Z,99555.03
2023-05-20T09:37:43.055Z,99546.41
2023-05-20T09:40:47.160Z,99558.25
2023-05-20T09:43:51.244Z,99551.41
2023-05-20T09:46:54.420Z,99543.31
2023-05-20T09:49:57.395Z,99540.25
2023-05-20T09:53:03.712Z,99530.88
2023-05-20T09:56:06.243Z,99532.75
2023-05-20T09:59:10.648Z,99523.72
2023-05-20T10:02:13.125Z,99517.16
2023-05-20T10:05:25.924Z,99512.25
2023-05-20T10:09:02.237Z,99515.78
2023-05-20T10:12:42.802Z,99505.03
2023-05-20T10:16:08.096Z,99508.41
2023-05-20T10:19:30.985Z,99505.69
2023-05-20T10:22:33.574Z,99497.53
2023-05-20T10:25:36.106Z,99493.19
2023-05-20T10:28:41.176Z,99495.72
2023-05-20T10:31:51.542Z,99497.97
2023-05-20T10:35:00.014Z,99502.66
2023-05-20T10:38:11.002Z,99481.84
2023-05-20T10:41:13.470Z,99487.38
2023-05-20T10:44:15.768Z,99482.97
2023-05-20T10:47:25.368Z,99480.44
2023-05-20T10:50:36.488Z,99479.22
2023-05-20T10:53:40.319Z,99476.75
2023-05-20T10:56:52.692Z,99468.94
2023-05-20T10:59:56.123Z,99468.47
2023-05-20T11:02:58.674Z,99465.25
2023-05-20T11:06:01.205Z,99465.03
2023-05-20T11:09:08.305Z,99453.31
2023-05-20T11:12:10.733Z,99451.09
2023-05-20T11:15:13.340Z,99441.25
2023-05-20T11:18:18.421Z,99435.16
2023-05-20T11:21:21.201Z,99443.22
2023-05-20T11:24:28.251Z,99438.84
2023-05-20T11:27:30.438Z,99438.94
2023-05-20T11:30:33.429Z,99445.38
2023-05-20T11:33:36.385Z,99440.22
2023-05-20T11:36:43.361Z,99436.50
2023-05-20T11:39:46.164Z,99430.94
2023-05-20T11:42:49.521Z,99443.09
2023-05-20T11:45:59.885Z,99442.88
2023-05-20T11:49:02.415Z,99426.97
2023-05-20T11:52:04.902Z,99445.13
2023-05-20T11:55:11.407Z,99436.91
2023-05-20T11:58:17.193Z,99438.28
2023-05-20T12:01:22.882Z,99422.78
2023-05-20T12:04:25.722Z,99428.84
2023-05-20T12:07:28.493Z,99421.75
2023-05-20T12:10:31.247Z,99430.16
2023-05-20T12:13:35.244Z,99433.34
2023-05-20T12:16:38.536Z,99425.94
2023-05-20T12:19:42.000Z,99424.06
2023-05-20T12:22:45.858Z,99416.22
2023-05-20T12:25:49.958Z,99411.66
2023-05-20T12:28:52.842Z,99402.97
2023-05-20T12:31:55.216Z,99412.81
2023-05-20T12:35:00.197Z,99402.72
2023-05-20T12:38:02.613Z,99402.63
2023-05-20T12:41:04.914Z,99403.13
2023-05-20T12:44:07.227Z,99402.56
2023-05-20T12:47:09.862Z,99391.69
2023-05-20T12:50:12.258Z,99406.03
2023-05-20T12:53:14.604Z,99391.53
2023-05-20T12:56:16.978Z,99389.94
2023-05-20T12:59:19.275Z,99390.72
2023-05-20T13:02:21.625Z,99388.84
2023-05-20T13:05:24.056Z,99382.75
2023-05-20T13:08:28.686Z,99376.84
2023-05-20T13:11:31.286Z,99369.09
2023-05-20T13:14:33.600Z,99366.50
2023-05-20T13:17:36.058Z,99369.06
2023-05-20T13:20:38.865Z,99368.31
2023-05-20T13:23:41.733Z,99370.84
2023-05-20T13:26:44.098Z,99362.06
2023-05-20T13:29:46.437Z,99372.75
2023-05-20T13:32:48.812Z,99357.84
2023-05-20T13:35:51.692Z,99363.06
2023-05-20T13:38:53.989Z,99355.16
2023-05-20T13:41:56.487Z,99357.81
2023-05-20T13:44:58.840Z,99359.59
2023-05-20T13:48:01.166Z,99357.81
2023-05-20T13:51:03.765Z,99362.22
2023-05-20T13:54:06.675Z,99358.69
2023-05-20T13:57:11.797Z,99351.66
2023-05-20T14:00:15.803Z,99352.53
2023-05-20T14:03:18.485Z,99350.78
2023-05-20T14:06:21.009Z,99341.13
2023-05-20T14:09:23.336Z,99341.09
2023-05-20T14:12:25.776Z,99331.47
2023-05-20T14:15:30.820Z,99345.56
2023-05-20T14:18:33.183Z,99335.03
2023-05-20T14:21:35.674Z,99327.97
2023-05-20T14:24:38.009Z,99327.00
2023-05-20T14:27:40.314Z,99327.06
2023-05-20T14:30:42.639Z,99320.88
2023-05-20T14:33:45.123Z,99314.69
2023-05-20T14:36:47.782Z,99313.78
2023-05-20T14:39:50.095Z,99312.88
2023-05-20T14:42:52.430Z,99319.72
2023-05-20T14:45:54.799Z,99319.75
2023-05-20T14:48:57.125Z,99314.63
2023-05-20T14:51:59.488Z,99314.63
2023-05-20T14:55:01.769Z,99313.81
2023-05-20T14:58:04.155Z,99313.78
2023-05-20T15:01:06.489Z,99318.19
2023-05-20T15:04:08.833Z,99308.50
2023-05-20T15:07:11.158Z,99307.59
2023-05-20T15:10:13.468Z,99311.88
2023-05-20T15:13:15.820Z,99296.16
2023-05-20T15:16:19.534Z,99304.84
2023-05-20T15:19:22.204Z,99290.72
2023-05-20T15:22:24.572Z,99287.88
2023-05-20T15:25:26.882Z,99289.53
2023-05-20T15:28:29.146Z,99295.63
2023-05-20T15:31:31.477Z,99286.72
2023-05-20T15:34:34.132Z,99286.03
2023-05-20T15:37:36.474Z,99289.72
2023-05-20T15:40:39.561Z,99281.00
2023-05-20T15:43:42.345Z,99276.59
2023-05-20T15:46:45.540Z,99274.88
2023-05-20T15:49:47.869Z,99267.69
2023-05-20T15:52:53.271Z,99271.91
2023-05-20T15:55:55.680Z,99269.22
2023-05-20T15:58:57.981Z,99263.91
2023-05-20T16:02:00.738Z,99265.44
2023-05-20T16:05:03.626Z,99263.59
2023-05-20T16:08:06.363Z,99266.09
2023-05-20T16:11:09.246Z,99259.84
2023-05-20T16:14:11.984Z,99265.09
2023-05-20T16:17:14.583Z,99260.56
2023-05-20T16:20:16.860Z,99265.53
2023-05-20T16:23:19.159Z,99263.78
2023-05-20T16:26:21.473Z,99260.09
2023-05-20T16:29:23.714Z,99263.59
2023-05-20T16:32:27.104Z,99262.63
2023-05-20T16:35:29.551Z,99250.13
2023-05-20T16:38:32.616Z,99251.66
2023-05-20T16:41:35.044Z,99261.03
2023-05-20T16:44:39.168Z,99263.44
2023-05-20T16:47:41.654Z,99256.28
2023-05-20T16:50:43.957Z,99262.25
2023-05-20T16:53:46.338Z,99265.50
2023-05-20T16:56:48.657Z,99267.88
2023-05-20T16:59:51.031Z,99267.72
2023-05-20T17:02:53.355Z,99265.88
2023-05-20T17:05:55.983Z,99269.09
2023-05-20T17:08:59.648Z,99261.91
2023-05-20T17:12:02.797Z,99260.75
2023-05-20T17:15:06.165Z,99271.16
2023-05-20T17:18:08.629Z,99268.34
2023-05-20T17:21:10.928Z,99272.38
2023-05-20T17:24:13.242Z,99271.34
2023-05-20T17:27:15.519Z,99277.19
2023-05-20T17:30:17.851Z,99283.94
2023-05-20T17:33:20.492Z,99281.09
2023-05-20T17:36:23.102Z,99276.56
2023-05-20T17:39:25.648Z,99277.88
2023-05-20T17:42:27.915Z,99278.53
2023-05-20T17:45:30.211Z,99282.72
2023-05-20T17:48:33.042Z,99281.66
2023-05-20T17:51:35.543Z,99286.59
2023-05-20T17:54:37.819Z,99280.19
2023-05-20T17:57:40.098Z,99285.94
2023-05-20T18:00:42.825Z,99284.59
2023-05-20T18:03:45.247Z,99287.59
2023-05-20T18:06:47.520Z,99285.41
2023-05-20T18:09:49.934Z,99286.88
2023-05-20T18:12:52.330Z,99287.44
2023-05-20T18:15:54.687Z,99289.69
2023-05-20T18:18:57.905Z,99276.38
2023-05-20T18:22:01.192Z,99280.53
2023-05-20T18:25:03.797Z,99280.25
2023-05-20T18:28:06.170Z,99282.59
2023-05-20T18:31:09.899Z,99286.78
2023-05-20T18:34:12.257Z,99290.84
2023-05-20T18:37:14.610Z,99286.16
2023-05-20T18:40:17.132Z,99288.44
2023-05-20T18:43:19.630Z,99289.88
2023-05-20T18:46:21.988Z,99299.97
2023-05-20T18:49:24.384Z,99298.78
2023-05-20T18:52:26.877Z,99289.09
2023-05-20T18:55:29.276Z,99298.44
2023-05-20T18:58:31.780Z,99293.84
2023-05-20T19:01:36.627Z,99309.22
2023-05-20T19:04:39.367Z,99300.91
2023-05-20T19:07:41.969Z,99298.00
2023-05-20T19:10:44.276Z,99303.94
2023-05-20T19:13:46.700Z,99294.75
2023-05-20T19:16:49.394Z,99304.41
2023-05-20T19:19:55.721Z,99308.50
2023-05-20T19:22:59.927Z,99305.78
2023-05-20T19:26:02.534Z,99311.66
2023-05-20T19:29:07.210Z,99319.53
2023-05-20T19:32:10.265Z,99323.91
2023-05-20T19:35:13.724Z,99310.69
2023-05-20T19:38:25.106Z,99316.53
2023-05-20T19:41:28.745Z,99308.59
2023-05-20T19:44:38.065Z,99309.44
2023-05-20T19:47:48.595Z,99321.25
2023-05-20T19:50:56.156Z,99318.44
2023-05-20T19:53:58.593Z,99322.56
2023-05-20T19:57:06.226Z,99325.94
2023-05-20T20:00:11.352Z,99320.59
2023-05-20T20:03:30.715Z,99329.13
2023-05-20T20:06:33.252Z,99319.28
2023-05-20T20:09:40.204Z,99330.09
2023-05-20T20:12:44.384Z,99323.31
2023-05-20T20:16:01.703Z,99334.78
2023-05-20T20:19:08.412Z,99337.69
2023-05-20T20:22:18.303Z,99327.00
2023-05-20T20:25:36.861Z,99329.44
2023-05-20T20:28:43.631Z,99331.06
2023-05-20T20:31:46.586Z,99319.69
2023-05-20T20:34:48.882Z,99314.84
2023-05-20T20:38:03.862Z,99325.00
2023-05-20T20:41:09.631Z,99318.53
2023-05-20T20:44:17.282Z,99316.03
2023-05-20T20:47:22.302Z,99309.06
2023-05-20T20:50:36.440Z,99313.25
2023-05-20T20:53:46.050Z,99314.53
2023-05-20T20:56:53.832Z,99316.66
2023-05-20T20:59:57.871Z,99320.06
2023-05-20T21:03:00.202Z,99306.22
2023-05-20T21:06:03.368Z,99317.56
2023-05-20T21:09:05.839Z,99319.19
2023-05-20T21:12:08.134Z,99311.47
2023-05-20T21:15:12.551Z,99321.72
2023-05-20T21:18:21.620Z,99326.56
2023-05-20T21:21:23.930Z,99325.44
2023-05-20T21:24:26.205Z,99322.75
2023-05-20T21:27:28.484Z,99321.13
2023-05-20T21:30:31.063Z,99311.47
2023-05-20T21:33:33.367Z,99317.47
2023-05-20T21:36:36.333Z,99317.41
2023-05-20T21:39:38.926Z,99313.03
2023-05-20T21:42:41.619Z,99308.31
2023-05-20T21:45:43.946Z,99303.69
2023-05-20T21:48:46.246Z,99303.69
2023-05-20T21:51:48.700Z,99306.16
2023-05-20T21:54:51.701Z,99304.22
2023-05-20T21:57:53.973Z,99304.28
2023-05-20T22:00:56.546Z,99315.00
2023-05-20T22:03:59.470Z,99307.09
2023-05-20T22:07:01.977Z,99304.47
2023-05-20T22:10:04.996Z,99304.47
2023-05-20T22:13:07.283Z,99301.06
2023-05-20T22:16:09.966Z,99301.78
2023-05-20T22:19:16.367Z,99314.31
2023-05-20T22:22:19.335Z,99309.94
2023-05-20T22:25:22.694Z,99306.75
2023-05-20T22:28:35.141Z,99308.53
2023-05-20T22:31:38.113Z,99306.97
2023-05-20T22:34:40.641Z,99306.56
2023-05-20T22:37:43.319Z,99314.16
2023-05-20T22:40:46.023Z,99306.75
2023-05-20T22:43:48.863Z,99309.06
2023-05-20T22:46:51.152Z,99313.75
2023-05-20T22:49:53.948Z,99310.13
2023-05-20T22:52:56.348Z,99305.41
2023-05-20T22:56:00.070Z,99307.06
2023-05-20T22:59:03.266Z,99307.66
2023-05-20T23:02:06.257Z,99304.66
2023-05-20T23:05:08.864Z,99310.75
2023-05-20T23:08:11.144Z,99316.81
2023-05-20T23:11:13.480Z,99309.66
2023-05-20T23:14:15.917Z,99306.25
2023-05-20T23:17:18.205Z,99307.69
2023-05-20T23:20:23.027Z,99306.72
2023-05-20T23:23:31.247Z,99302.97
2023-05-20T23:26:34.584Z,99309.63
2023-05-20T23:29:36.935Z,99320.00
2023-05-20T23:32:39.295Z,99317.16
2023-05-20T23:35:44.076Z,99311.31
2023-05-20T23:38:46.395Z,99313.63
2023-05-20T23:41:48.966Z,99310.72
2023-05-20T23:44:51.535Z,99311.94
2023-05-20T23:47:55.547Z,99303.75
2023-05-20T23:50:57.958Z,99304.13
2023-05-20T23:54:00.254Z,99306.41
2023-05-20T23:57:02.666Z,99307.72
